sensor_id;sensor_type;location;lat;lon;timestamp;P1;durP1;ratioP1;P2;durP2;ratioP2
3795;SDS011;1913;50.660;7.834;2022-11-20T00:00:07;27.40;;;14.10;;
3795;SDS011;1913;50.660;7.834;2022-11-20T00:02:33;24.10;;;12.80;;
3795;SDS011;1913;50.660;7.834;2022-11-20T00:04:59;27.80;;;14.10;;
3795;SDS011;1913;50.660;7.834;2022-11-20T00:07:24;24.67;;;13.33;;
3795;SDS011;1913;50.660;7.834;2022-11-20T00:09:49;24.33;;;12.80;;
3795;SDS011;1913;50.660;7.834;2022-11-20T00:12:15;21.57;;;12.30;;
3795;SDS011;1913;50.660;7.834;2022-11-20T00:14:41;26.80;;;13.40;;
3795;SDS011;1913;50.660;7.834;2022-11-20T00:17:06;26.50;;;13.70;;
3795;SDS011;1913;50.660;7.834;2022-11-20T00:19:32;27.60;;;14.73;;
3795;SDS011;1913;50.660;7.834;2022-11-20T00:21:57;24.63;;;13.40;;
3795;SDS011;1913;50.660;7.834;2022-11-20T00:24:23;22.97;;;12.57;;
3795;SDS011;1913;50.660;7.834;2022-11-20T00:26:48;27.30;;;13.07;;
3795;SDS011;1913;50.660;7.834;2022-11-20T00:29:13;28.17;;;14.27;;
3795;SDS011;1913;50.660;7.834;2022-11-20T00:31:39;23.50;;;13.13;;
3795;SDS011;1913;50.660;7.834;2022-11-20T00:34:04;22.53;;;12.90;;
3795;SDS011;1913;50.660;7.834;2022-11-20T00:36:32;25.10;;;13.20;;
3795;SDS011;1913;50.660;7.834;2022-11-20T00:38:59;27.70;;;13.80;;
3795;SDS011;1913;50.660;7.834;2022-11-20T00:41:25;21.23;;;12.50;;
3795;SDS011;1913;50.660;7.834;2022-11-20T00:43:52;27.67;;;13.73;;
3795;SDS011;1913;50.660;7.834;2022-11-20T00:46:19;26.20;;;13.50;;
3795;SDS011;1913;50.660;7.834;2022-11-20T00:48:46;28.53;;;13.77;;
3795;SDS011;1913;50.660;7.834;2022-11-20T00:51:13;26.80;;;14.37;;
3795;SDS011;1913;50.660;7.834;2022-11-20T00:53:40;25.80;;;14.23;;
3795;SDS011;1913;50.660;7.834;2022-11-20T00:56:06;27.50;;;13.50;;
3795;SDS011;1913;50.660;7.834;2022-11-20T00:58:35;26.93;;;14.10;;
3795;SDS011;1913;50.660;7.834;2022-11-20T01:01:12;28.67;;;14.50;;
3795;SDS011;1913;50.660;7.834;2022-11-20T01:03:40;26.53;;;13.20;;
3795;SDS011;1913;50.660;7.834;2022-11-20T01:06:11;29.60;;;14.43;;
3795;SDS011;1913;50.660;7.834;2022-11-20T01:08:39;27.07;;;13.90;;
3795;SDS011;1913;50.660;7.834;2022-11-20T01:11:07;24.20;;;13.17;;
3795;SDS011;1913;50.660;7.834;2022-11-20T01:13:34;26.47;;;13.27;;
3795;SDS011;1913;50.660;7.834;2022-11-20T01:16:14;26.07;;;13.70;;
3795;SDS011;1913;50.660;7.834;2022-11-20T01:18:45;28.37;;;13.13;;
3795;SDS011;1913;50.660;7.834;2022-11-20T01:21:13;22.50;;;12.43;;
3795;SDS011;1913;50.660;7.834;2022-11-20T01:23:41;26.03;;;13.93;;
3795;SDS011;1913;50.660;7.834;2022-11-20T01:26:09;26.13;;;13.97;;
3795;SDS011;1913;50.660;7.834;2022-11-20T01:28:36;25.30;;;13.43;;
3795;SDS011;1913;50.660;7.834;2022-11-20T01:31:10;26.03;;;14.10;;
3795;SDS011;1913;50.660;7.834;2022-11-20T01:33:38;28.70;;;15.17;;
3795;SDS011;1913;50.660;7.834;2022-11-20T01:36:06;24.47;;;13.47;;
3795;SDS011;1913;50.660;7.834;2022-11-20T01:38:32;30.03;;;15.80;;
3795;SDS011;1913;50.660;7.834;2022-11-20T01:40:58;26.60;;;13.83;;
3795;SDS011;1913;50.660;7.834;2022-11-20T01:43:23;26.77;;;13.83;;
3795;SDS011;1913;50.660;7.834;2022-11-20T01:48:25;31.17;;;15.63;;
3795;SDS011;1913;50.660;7.834;2022-11-20T01:50:54;27.00;;;13.90;;
3795;SDS011;1913;50.660;7.834;2022-11-20T01:53:23;27.83;;;13.90;;
3795;SDS011;1913;50.660;7.834;2022-11-20T01:55:54;32.23;;;14.30;;
3795;SDS011;1913;50.660;7.834;2022-11-20T01:58:22;27.57;;;14.07;;
3795;SDS011;1913;50.660;7.834;2022-11-20T02:00:52;28.07;;;14.20;;
3795;SDS011;1913;50.660;7.834;2022-11-20T02:03:18;28.30;;;15.17;;
3795;SDS011;1913;50.660;7.834;2022-11-20T02:05:50;29.10;;;15.27;;
3795;SDS011;1913;50.660;7.834;2022-11-20T02:08:17;24.30;;;13.10;;
3795;SDS011;1913;50.660;7.834;2022-11-20T02:10:43;25.10;;;14.80;;
3795;SDS011;1913;50.660;7.834;2022-11-20T02:13:08;27.97;;;14.40;;
3795;SDS011;1913;50.660;7.834;2022-11-20T02:15:52;25.33;;;13.20;;
3795;SDS011;1913;50.660;7.834;2022-11-20T02:18:19;30.17;;;15.03;;
3795;SDS011;1913;50.660;7.834;2022-11-20T02:20:47;33.03;;;15.10;;
3795;SDS011;1913;50.660;7.834;2022-11-20T02:23:32;27.47;;;14.23;;
3795;SDS011;1913;50.660;7.834;2022-11-20T02:26:04;28.90;;;14.50;;
3795;SDS011;1913;50.660;7.834;2022-11-20T02:28:33;28.50;;;15.33;;
3795;SDS011;1913;50.660;7.834;2022-11-20T02:31:00;30.10;;;15.50;;
3795;SDS011;1913;50.660;7.834;2022-11-20T02:33:26;31.67;;;14.63;;
3795;SDS011;1913;50.660;7.834;2022-11-20T02:35:51;25.27;;;14.27;;
3795;SDS011;1913;50.660;7.834;2022-11-20T02:38:16;31.73;;;15.67;;
3795;SDS011;1913;50.660;7.834;2022-11-20T02:40:42;30.50;;;16.20;;
3795;SDS011;1913;50.660;7.834;2022-11-20T02:43:08;28.97;;;15.03;;
3795;SDS011;1913;50.660;7.834;2022-11-20T02:45:34;27.40;;;14.43;;
3795;SDS011;1913;50.660;7.834;2022-11-20T02:47:59;27.90;;;14.60;;
3795;SDS011;1913;50.660;7.834;2022-11-20T02:50:25;28.07;;;15.70;;
3795;SDS011;1913;50.660;7.834;2022-11-20T02:52:50;31.37;;;15.60;;
3795;SDS011;1913;50.660;7.834;2022-11-20T02:55:16;32.43;;;16.07;;
3795;SDS011;1913;50.660;7.834;2022-11-20T02:57:41;29.77;;;14.77;;
3795;SDS011;1913;50.660;7.834;2022-11-20T03:00:07;27.47;;;15.03;;
3795;SDS011;1913;50.660;7.834;2022-11-20T03:02:33;28.40;;;15.30;;
3795;SDS011;1913;50.660;7.834;2022-11-20T03:04:59;30.80;;;15.20;;
3795;SDS011;1913;50.660;7.834;2022-11-20T03:07:24;31.17;;;16.00;;
3795;SDS011;1913;50.660;7.834;2022-11-20T03:09:49;29.10;;;15.17;;
3795;SDS011;1913;50.660;7.834;2022-11-20T03:12:15;34.53;;;15.83;;
3795;SDS011;1913;50.660;7.834;2022-11-20T03:14:40;29.63;;;14.60;;
3795;SDS011;1913;50.660;7.834;2022-11-20T03:17:06;31.13;;;15.27;;
3795;SDS011;1913;50.660;7.834;2022-11-20T03:19:31;28.90;;;15.03;;
3795;SDS011;1913;50.660;7.834;2022-11-20T03:21:57;29.83;;;14.93;;
3795;SDS011;1913;50.660;7.834;2022-11-20T03:24:22;30.70;;;15.63;;
3795;SDS011;1913;50.660;7.834;2022-11-20T03:26:47;29.50;;;15.00;;
3795;SDS011;1913;50.660;7.834;2022-11-20T03:29:13;33.20;;;15.90;;
3795;SDS011;1913;50.660;7.834;2022-11-20T03:31:39;28.60;;;14.10;;
3795;SDS011;1913;50.660;7.834;2022-11-20T03:34:06;29.83;;;16.77;;
3795;SDS011;1913;50.660;7.834;2022-11-20T03:36:32;30.20;;;16.30;;
3795;SDS011;1913;50.660;7.834;2022-11-20T03:38:58;34.40;;;15.70;;
3795;SDS011;1913;50.660;7.834;2022-11-20T03:41:25;30.80;;;14.90;;
3795;SDS011;1913;50.660;7.834;2022-11-20T03:43:52;32.60;;;16.57;;
3795;SDS011;1913;50.660;7.834;2022-11-20T03:46:19;31.30;;;15.73;;
3795;SDS011;1913;50.660;7.834;2022-11-20T03:48:45;35.27;;;16.83;;
3795;SDS011;1913;50.660;7.834;2022-11-20T03:53:37;32.93;;;17.37;;
3795;SDS011;1913;50.660;7.834;2022-11-20T03:56:03;32.30;;;16.77;;
3795;SDS011;1913;50.660;7.834;2022-11-20T03:58:29;30.90;;;15.90;;
3795;SDS011;1913;50.660;7.834;2022-11-20T04:00:54;35.70;;;17.23;;
3795;SDS011;1913;50.660;7.834;2022-11-20T04:03:20;35.10;;;16.60;;
3795;SDS011;1913;50.660;7.834;2022-11-20T04:05:45;32.30;;;15.60;;
3795;SDS011;1913;50.660;7.834;2022-11-20T04:08:11;33.47;;;16.60;;
3795;SDS011;1913;50.660;7.834;2022-11-20T04:10:36;34.47;;;16.20;;
3795;SDS011;1913;50.660;7.834;2022-11-20T04:13:02;31.37;;;15.73;;
3795;SDS011;1913;50.660;7.834;2022-11-20T04:15:28;37.80;;;18.17;;
3795;SDS011;1913;50.660;7.834;2022-11-20T04:17:53;38.70;;;18.50;;
3795;SDS011;1913;50.660;7.834;2022-11-20T04:20:19;36.47;;;16.50;;
3795;SDS011;1913;50.660;7.834;2022-11-20T04:22:44;39.60;;;19.13;;
3795;SDS011;1913;50.660;7.834;2022-11-20T04:25:10;40.17;;;18.40;;
3795;SDS011;1913;50.660;7.834;2022-11-20T04:27:35;36.27;;;16.67;;
3795;SDS011;1913;50.660;7.834;2022-11-20T04:30:00;41.03;;;19.07;;
3795;SDS011;1913;50.660;7.834;2022-11-20T04:32:26;35.80;;;18.17;;
3795;SDS011;1913;50.660;7.834;2022-11-20T04:34:51;37.20;;;18.67;;
3795;SDS011;1913;50.660;7.834;2022-11-20T04:37:16;42.23;;;17.40;;
3795;SDS011;1913;50.660;7.834;2022-11-20T04:39:44;37.50;;;17.23;;
3795;SDS011;1913;50.660;7.834;2022-11-20T04:42:09;33.77;;;17.10;;
3795;SDS011;1913;50.660;7.834;2022-11-20T04:44:53;36.43;;;16.80;;
3795;SDS011;1913;50.660;7.834;2022-11-20T04:47:19;36.23;;;17.97;;
3795;SDS011;1913;50.660;7.834;2022-11-20T04:49:44;37.80;;;18.10;;
3795;SDS011;1913;50.660;7.834;2022-11-20T04:52:10;41.23;;;18.87;;
3795;SDS011;1913;50.660;7.834;2022-11-20T04:54:35;41.50;;;18.17;;
3795;SDS011;1913;50.660;7.834;2022-11-20T04:57:00;43.23;;;19.20;;
3795;SDS011;1913;50.660;7.834;2022-11-20T04:59:26;35.27;;;16.80;;
3795;SDS011;1913;50.660;7.834;2022-11-20T05:01:51;44.67;;;20.27;;
3795;SDS011;1913;50.660;7.834;2022-11-20T05:04:16;43.37;;;19.50;;
3795;SDS011;1913;50.660;7.834;2022-11-20T05:06:42;43.07;;;20.13;;
3795;SDS011;1913;50.660;7.834;2022-11-20T05:09:07;43.23;;;18.27;;
3795;SDS011;1913;50.660;7.834;2022-11-20T05:11:33;37.93;;;19.13;;
3795;SDS011;1913;50.660;7.834;2022-11-20T05:13:58;38.60;;;18.90;;
3795;SDS011;1913;50.660;7.834;2022-11-20T05:16:24;41.33;;;20.07;;
3795;SDS011;1913;50.660;7.834;2022-11-20T05:18:51;49.87;;;21.03;;
3795;SDS011;1913;50.660;7.834;2022-11-20T05:21:17;47.00;;;19.27;;
3795;SDS011;1913;50.660;7.834;2022-11-20T05:23:44;46.17;;;20.23;;
3795;SDS011;1913;50.660;7.834;2022-11-20T05:26:14;49.20;;;20.23;;
3795;SDS011;1913;50.660;7.834;2022-11-20T05:28:41;41.43;;;20.03;;
3795;SDS011;1913;50.660;7.834;2022-11-20T05:31:10;47.37;;;20.10;;
3795;SDS011;1913;50.660;7.834;2022-11-20T05:33:39;43.47;;;19.60;;
3795;SDS011;1913;50.660;7.834;2022-11-20T05:36:08;43.57;;;18.37;;
3795;SDS011;1913;50.660;7.834;2022-11-20T05:38:39;51.87;;;18.60;;
3795;SDS011;1913;50.660;7.834;2022-11-20T05:41:19;55.77;;;20.03;;
3795;SDS011;1913;50.660;7.834;2022-11-20T05:43:48;42.50;;;18.00;;
3795;SDS011;1913;50.660;7.834;2022-11-20T05:46:23;49.13;;;18.80;;
3795;SDS011;1913;50.660;7.834;2022-11-20T05:48:50;37.33;;;16.63;;
3795;SDS011;1913;50.660;7.834;2022-11-20T05:51:17;49.20;;;19.17;;
3795;SDS011;1913;50.660;7.834;2022-11-20T05:53:46;56.53;;;19.80;;
3795;SDS011;1913;50.660;7.834;2022-11-20T05:56:17;44.93;;;18.10;;
3795;SDS011;1913;50.660;7.834;2022-11-20T05:58:48;35.67;;;15.90;;
3795;SDS011;1913;50.660;7.834;2022-11-20T06:01:20;51.73;;;18.47;;
3795;SDS011;1913;50.660;7.834;2022-11-20T06:03:54;52.73;;;18.30;;
3795;SDS011;1913;50.660;7.834;2022-11-20T06:06:23;49.90;;;19.17;;
3795;SDS011;1913;50.660;7.834;2022-11-20T06:09:27;51.23;;;20.57;;
3795;SDS011;1913;50.660;7.834;2022-11-20T06:11:59;53.07;;;20.73;;
3795;SDS011;1913;50.660;7.834;2022-11-20T06:14:27;56.83;;;21.50;;
3795;SDS011;1913;50.660;7.834;2022-11-20T06:16:58;61.73;;;21.90;;
3795;SDS011;1913;50.660;7.834;2022-11-20T06:19:35;70.43;;;23.70;;
3795;SDS011;1913;50.660;7.834;2022-11-20T06:22:10;57.53;;;20.80;;
3795;SDS011;1913;50.660;7.834;2022-11-20T06:24:44;60.23;;;20.47;;
3795;SDS011;1913;50.660;7.834;2022-11-20T06:27:15;92.63;;;24.40;;
3795;SDS011;1913;50.660;7.834;2022-11-20T06:32:32;77.50;;;24.60;;
3795;SDS011;1913;50.660;7.834;2022-11-20T06:35:12;65.83;;;22.17;;
3795;SDS011;1913;50.660;7.834;2022-11-20T06:37:48;57.53;;;20.03;;
3795;SDS011;1913;50.660;7.834;2022-11-20T06:40:28;71.80;;;21.60;;
3795;SDS011;1913;50.660;7.834;2022-11-20T06:42:58;71.87;;;22.10;;
3795;SDS011;1913;50.660;7.834;2022-11-20T06:45:25;61.97;;;21.20;;
3795;SDS011;1913;50.660;7.834;2022-11-20T06:47:50;98.80;;;24.43;;
3795;SDS011;1913;50.660;7.834;2022-11-20T06:50:15;97.27;;;24.00;;
3795;SDS011;1913;50.660;7.834;2022-11-20T06:52:41;71.97;;;23.23;;
3795;SDS011;1913;50.660;7.834;2022-11-20T06:55:06;74.80;;;23.47;;
3795;SDS011;1913;50.660;7.834;2022-11-20T06:57:32;164.57;;;28.03;;
3795;SDS011;1913;50.660;7.834;2022-11-20T06:59:57;68.77;;;24.40;;
3795;SDS011;1913;50.660;7.834;2022-11-20T07:02:23;72.63;;;24.00;;
3795;SDS011;1913;50.660;7.834;2022-11-20T07:04:48;92.13;;;25.27;;
3795;SDS011;1913;50.660;7.834;2022-11-20T07:07:13;99.37;;;25.17;;
3795;SDS011;1913;50.660;7.834;2022-11-20T07:09:39;104.33;;;25.10;;
3795;SDS011;1913;50.660;7.834;2022-11-20T07:12:04;125.73;;;27.40;;
3795;SDS011;1913;50.660;7.834;2022-11-20T07:14:30;84.37;;;26.53;;
3795;SDS011;1913;50.660;7.834;2022-11-20T07:16:55;104.03;;;27.27;;
3795;SDS011;1913;50.660;7.834;2022-11-20T07:19:21;94.37;;;25.13;;
3795;SDS011;1913;50.660;7.834;2022-11-20T07:21:46;90.23;;;26.80;;
3795;SDS011;1913;50.660;7.834;2022-11-20T07:24:11;107.50;;;27.93;;
3795;SDS011;1913;50.660;7.834;2022-11-20T07:26:37;92.80;;;26.20;;
3795;SDS011;1913;50.660;7.834;2022-11-20T07:29:02;81.93;;;25.07;;
3795;SDS011;1913;50.660;7.834;2022-11-20T07:31:28;304.17;;;36.30;;
3795;SDS011;1913;50.660;7.834;2022-11-20T07:33:53;114.80;;;26.83;;
3795;SDS011;1913;50.660;7.834;2022-11-20T07:36:19;229.47;;;32.90;;
3795;SDS011;1913;50.660;7.834;2022-11-20T07:38:44;93.17;;;26.87;;
3795;SDS011;1913;50.660;7.834;2022-11-20T07:41:10;269.17;;;33.10;;
3795;SDS011;1913;50.660;7.834;2022-11-20T07:43:35;186.70;;;31.00;;
3795;SDS011;1913;50.660;7.834;2022-11-20T07:46:00;84.23;;;27.00;;
3795;SDS011;1913;50.660;7.834;2022-11-20T07:48:26;79.33;;;26.60;;
3795;SDS011;1913;50.660;7.834;2022-11-20T07:50:55;95.80;;;28.00;;
3795;SDS011;1913;50.660;7.834;2022-11-20T07:53:21;77.80;;;26.20;;
3795;SDS011;1913;50.660;7.834;2022-11-20T07:55:47;159.30;;;29.03;;
3795;SDS011;1913;50.660;7.834;2022-11-20T07:58:13;91.00;;;26.50;;
3795;SDS011;1913;50.660;7.834;2022-11-20T08:00:42;153.77;;;30.27;;
3795;SDS011;1913;50.660;7.834;2022-11-20T08:03:07;127.00;;;29.53;;
3795;SDS011;1913;50.660;7.834;2022-11-20T08:05:33;188.43;;;32.67;;
3795;SDS011;1913;50.660;7.834;2022-11-20T08:07:58;72.90;;;25.27;;
3795;SDS011;1913;50.660;7.834;2022-11-20T08:10:24;82.93;;;25.30;;
3795;SDS011;1913;50.660;7.834;2022-11-20T08:12:50;87.53;;;27.80;;
3795;SDS011;1913;50.660;7.834;2022-11-20T08:15:35;85.57;;;25.50;;
3795;SDS011;1913;50.660;7.834;2022-11-20T08:18:03;90.43;;;25.27;;
3795;SDS011;1913;50.660;7.834;2022-11-20T08:20:33;74.87;;;24.43;;
3795;SDS011;1913;50.660;7.834;2022-11-20T08:23:00;167.30;;;29.27;;
3795;SDS011;1913;50.660;7.834;2022-11-20T08:25:27;101.03;;;26.77;;
3795;SDS011;1913;50.660;7.834;2022-11-20T08:27:53;80.20;;;23.93;;
3795;SDS011;1913;50.660;7.834;2022-11-20T08:30:19;74.50;;;21.17;;
3795;SDS011;1913;50.660;7.834;2022-11-20T08:32:44;66.80;;;21.17;;
3795;SDS011;1913;50.660;7.834;2022-11-20T08:35:10;77.53;;;25.20;;
3795;SDS011;1913;50.660;7.834;2022-11-20T08:37:35;71.13;;;23.33;;
3795;SDS011;1913;50.660;7.834;2022-11-20T08:40:02;78.57;;;24.67;;
3795;SDS011;1913;50.660;7.834;2022-11-20T08:42:28;76.27;;;23.13;;
3795;SDS011;1913;50.660;7.834;2022-11-20T08:44:53;79.57;;;24.00;;
3795;SDS011;1913;50.660;7.834;2022-11-20T08:47:18;63.90;;;21.53;;
3795;SDS011;1913;50.660;7.834;2022-11-20T08:49:44;67.80;;;22.63;;
3795;SDS011;1913;50.660;7.834;2022-11-20T08:52:09;64.73;;;22.97;;
3795;SDS011;1913;50.660;7.834;2022-11-20T08:54:34;69.50;;;22.30;;
3795;SDS011;1913;50.660;7.834;2022-11-20T08:57:00;56.60;;;20.77;;
3795;SDS011;1913;50.660;7.834;2022-11-20T08:59:25;61.93;;;22.20;;
3795;SDS011;1913;50.660;7.834;2022-11-20T09:01:51;56.53;;;21.70;;
3795;SDS011;1913;50.660;7.834;2022-11-20T09:04:16;52.47;;;20.70;;
3795;SDS011;1913;50.660;7.834;2022-11-20T09:06:41;44.73;;;19.30;;
3795;SDS011;1913;50.660;7.834;2022-11-20T09:09:07;40.47;;;17.63;;
3795;SDS011;1913;50.660;7.834;2022-11-20T09:11:33;44.30;;;18.77;;
3795;SDS011;1913;50.660;7.834;2022-11-20T09:14:00;37.80;;;17.63;;
3795;SDS011;1913;50.660;7.834;2022-11-20T09:16:27;36.50;;;16.80;;
3795;SDS011;1913;50.660;7.834;2022-11-20T09:18:53;39.50;;;18.60;;
3795;SDS011;1913;50.660;7.834;2022-11-20T09:21:18;37.10;;;17.13;;
3795;SDS011;1913;50.660;7.834;2022-11-20T09:23:44;36.40;;;17.63;;
3795;SDS011;1913;50.660;7.834;2022-11-20T09:26:10;42.37;;;18.30;;
3795;SDS011;1913;50.660;7.834;2022-11-20T09:28:38;38.20;;;18.40;;
3795;SDS011;1913;50.660;7.834;2022-11-20T09:34:01;31.63;;;16.20;;
3795;SDS011;1913;50.660;7.834;2022-11-20T09:36:27;36.70;;;17.60;;
3795;SDS011;1913;50.660;7.834;2022-11-20T09:38:52;36.03;;;16.93;;
3795;SDS011;1913;50.660;7.834;2022-11-20T09:47:13;37.87;;;17.27;;
3795;SDS011;1913;50.660;7.834;2022-11-20T09:52:35;33.60;;;16.40;;
3795;SDS011;1913;50.660;7.834;2022-11-20T09:55:10;37.23;;;17.50;;
3795;SDS011;1913;50.660;7.834;2022-11-20T09:57:40;45.80;;;19.70;;
3795;SDS011;1913;50.660;7.834;2022-11-20T10:00:10;34.50;;;17.00;;
3795;SDS011;1913;50.660;7.834;2022-11-20T10:05:35;33.00;;;16.30;;
3795;SDS011;1913;50.660;7.834;2022-11-20T10:10:41;38.00;;;17.87;;
3795;SDS011;1913;50.660;7.834;2022-11-20T10:24:29;35.50;;;16.50;;
3795;SDS011;1913;50.660;7.834;2022-11-20T10:27:07;40.03;;;18.73;;
3795;SDS011;1913;50.660;7.834;2022-11-20T10:29:39;35.77;;;16.60;;
3795;SDS011;1913;50.660;7.834;2022-11-20T10:32:11;34.10;;;17.00;;
3795;SDS011;1913;50.660;7.834;2022-11-20T10:37:26;28.43;;;15.03;;
3795;SDS011;1913;50.660;7.834;2022-11-20T10:42:44;32.07;;;15.03;;
3795;SDS011;1913;50.660;7.834;2022-11-20T10:47:40;29.00;;;14.67;;
3795;SDS011;1913;50.660;7.834;2022-11-20T10:50:08;24.97;;;13.97;;
3795;SDS011;1913;50.660;7.834;2022-11-20T10:55:55;22.27;;;12.30;;
3795;SDS011;1913;50.660;7.834;2022-11-20T10:58:41;26.47;;;13.30;;
3795;SDS011;1913;50.660;7.834;2022-11-20T11:01:17;27.30;;;13.47;;
3795;SDS011;1913;50.660;7.834;2022-11-20T11:03:46;27.57;;;14.47;;
3795;SDS011;1913;50.660;7.834;2022-11-20T11:06:14;23.27;;;12.20;;
3795;SDS011;1913;50.660;7.834;2022-11-20T11:08:47;26.83;;;14.27;;
3795;SDS011;1913;50.660;7.834;2022-11-20T11:13:44;30.83;;;14.80;;
3795;SDS011;1913;50.660;7.834;2022-11-20T11:16:22;24.43;;;13.40;;
3795;SDS011;1913;50.660;7.834;2022-11-20T11:18:49;25.20;;;13.87;;
3795;SDS011;1913;50.660;7.834;2022-11-20T11:21:23;25.90;;;13.63;;
3795;SDS011;1913;50.660;7.834;2022-11-20T11:23:57;25.63;;;12.83;;
3795;SDS011;1913;50.660;7.834;2022-11-20T11:26:24;25.87;;;14.07;;
3795;SDS011;1913;50.660;7.834;2022-11-20T11:29:01;27.47;;;13.73;;
3795;SDS011;1913;50.660;7.834;2022-11-20T11:31:35;23.10;;;12.53;;
3795;SDS011;1913;50.660;7.834;2022-11-20T11:34:07;24.03;;;12.83;;
3795;SDS011;1913;50.660;7.834;2022-11-20T11:36:36;24.23;;;12.30;;
3795;SDS011;1913;50.660;7.834;2022-11-20T11:39:03;29.77;;;14.57;;
3795;SDS011;1913;50.660;7.834;2022-11-20T11:41:34;27.10;;;15.13;;
3795;SDS011;1913;50.660;7.834;2022-11-20T11:47:22;32.20;;;15.73;;
3795;SDS011;1913;50.660;7.834;2022-11-20T11:50:00;25.80;;;14.23;;
3795;SDS011;1913;50.660;7.834;2022-11-20T11:55:35;31.83;;;14.70;;
3795;SDS011;1913;50.660;7.834;2022-11-20T12:00:53;26.63;;;12.83;;
3795;SDS011;1913;50.660;7.834;2022-11-20T12:03:34;24.73;;;12.33;;
3795;SDS011;1913;50.660;7.834;2022-11-20T12:06:04;26.40;;;13.20;;
3795;SDS011;1913;50.660;7.834;2022-11-20T12:08:47;27.33;;;14.30;;
3795;SDS011;1913;50.660;7.834;2022-11-20T12:11:18;23.47;;;12.90;;
3795;SDS011;1913;50.660;7.834;2022-11-20T12:13:53;25.13;;;12.90;;
3795;SDS011;1913;50.660;7.834;2022-11-20T12:16:23;26.13;;;13.87;;
3795;SDS011;1913;50.660;7.834;2022-11-20T12:18:50;21.83;;;12.53;;
3795;SDS011;1913;50.660;7.834;2022-11-20T12:27:01;25.47;;;13.80;;
3795;SDS011;1913;50.660;7.834;2022-11-20T12:29:21;24.20;;;12.30;;
3795;SDS011;1913;50.660;7.834;2022-11-20T12:40:44;28.20;;;14.37;;
3795;SDS011;1913;50.660;7.834;2022-11-20T12:43:29;26.47;;;13.80;;
3795;SDS011;1913;50.660;7.834;2022-11-20T13:02:37;24.60;;;13.63;;
3795;SDS011;1913;50.660;7.834;2022-11-20T13:05:20;24.23;;;13.03;;
3795;SDS011;1913;50.660;7.834;2022-11-20T13:07:53;28.37;;;14.60;;
3795;SDS011;1913;50.660;7.834;2022-11-20T13:15:46;27.57;;;12.90;;
3795;SDS011;1913;50.660;7.834;2022-11-20T13:18:40;27.33;;;12.77;;
3795;SDS011;1913;50.660;7.834;2022-11-20T13:21:17;22.37;;;12.37;;
3795;SDS011;1913;50.660;7.834;2022-11-20T13:23:47;25.40;;;13.30;;
3795;SDS011;1913;50.660;7.834;2022-11-20T13:26:21;22.57;;;12.33;;
3795;SDS011;1913;50.660;7.834;2022-11-20T13:28:59;27.50;;;12.50;;
3795;SDS011;1913;50.660;7.834;2022-11-20T13:31:36;23.40;;;12.23;;
3795;SDS011;1913;50.660;7.834;2022-11-20T13:34:07;21.50;;;12.60;;
3795;SDS011;1913;50.660;7.834;2022-11-20T13:36:47;20.30;;;12.00;;
3795;SDS011;1913;50.660;7.834;2022-11-20T13:39:23;21.67;;;12.20;;
3795;SDS011;1913;50.660;7.834;2022-11-20T13:41:54;20.17;;;11.47;;
3795;SDS011;1913;50.660;7.834;2022-11-20T13:45:10;21.03;;;12.27;;
3795;SDS011;1913;50.660;7.834;2022-11-20T13:47:23;24.93;;;12.37;;
3795;SDS011;1913;50.660;7.834;2022-11-20T13:49:54;26.50;;;12.90;;
3795;SDS011;1913;50.660;7.834;2022-11-20T13:57:38;22.00;;;12.20;;
3795;SDS011;1913;50.660;7.834;2022-11-20T14:00:24;21.17;;;11.70;;
3795;SDS011;1913;50.660;7.834;2022-11-20T14:05:25;19.33;;;12.10;;
3795;SDS011;1913;50.660;7.834;2022-11-20T14:07:51;21.00;;;11.80;;
3795;SDS011;1913;50.660;7.834;2022-11-20T14:10:35;20.50;;;11.73;;
3795;SDS011;1913;50.660;7.834;2022-11-20T14:13:20;20.33;;;10.90;;
3795;SDS011;1913;50.660;7.834;2022-11-20T14:15:45;21.30;;;11.60;;
3795;SDS011;1913;50.660;7.834;2022-11-20T14:18:18;20.27;;;11.40;;
3795;SDS011;1913;50.660;7.834;2022-11-20T14:20:46;22.60;;;11.60;;
3795;SDS011;1913;50.660;7.834;2022-11-20T14:23:12;22.87;;;11.00;;
3795;SDS011;1913;50.660;7.834;2022-11-20T14:25:41;20.30;;;11.60;;
3795;SDS011;1913;50.660;7.834;2022-11-20T14:28:11;19.40;;;10.90;;
3795;SDS011;1913;50.660;7.834;2022-11-20T14:30:51;17.53;;;9.70;;
3795;SDS011;1913;50.660;7.834;2022-11-20T14:33:17;21.87;;;11.53;;
3795;SDS011;1913;50.660;7.834;2022-11-20T14:35:44;20.33;;;11.23;;
3795;SDS011;1913;50.660;7.834;2022-11-20T14:38:13;25.17;;;12.07;;
3795;SDS011;1913;50.660;7.834;2022-11-20T14:40:41;24.07;;;12.23;;
3795;SDS011;1913;50.660;7.834;2022-11-20T14:45:44;21.70;;;11.93;;
3795;SDS011;1913;50.660;7.834;2022-11-20T14:48:13;27.27;;;13.20;;
3795;SDS011;1913;50.660;7.834;2022-11-20T14:50:40;26.53;;;13.87;;
3795;SDS011;1913;50.660;7.834;2022-11-20T14:53:06;28.47;;;14.57;;
3795;SDS011;1913;50.660;7.834;2022-11-20T14:55:32;25.97;;;14.30;;
3795;SDS011;1913;50.660;7.834;2022-11-20T14:58:21;31.97;;;15.70;;
3795;SDS011;1913;50.660;7.834;2022-11-20T15:00:58;35.20;;;16.10;;
3795;SDS011;1913;50.660;7.834;2022-11-20T15:05:58;28.37;;;14.13;;
3795;SDS011;1913;50.660;7.834;2022-11-20T15:08:23;37.47;;;16.80;;
3795;SDS011;1913;50.660;7.834;2022-11-20T15:10:49;29.23;;;14.50;;
3795;SDS011;1913;50.660;7.834;2022-11-20T15:13:26;33.83;;;15.70;;
3795;SDS011;1913;50.660;7.834;2022-11-20T15:15:56;32.60;;;14.47;;
3795;SDS011;1913;50.660;7.834;2022-11-20T15:18:24;30.83;;;15.90;;
3795;SDS011;1913;50.660;7.834;2022-11-20T15:20:56;34.17;;;16.13;;
3795;SDS011;1913;50.660;7.834;2022-11-20T15:23:25;34.40;;;14.87;;
3795;SDS011;1913;50.660;7.834;2022-11-20T15:25:52;35.13;;;16.20;;
3795;SDS011;1913;50.660;7.834;2022-11-20T15:28:21;35.43;;;16.30;;
3795;SDS011;1913;50.660;7.834;2022-11-20T15:30:52;35.00;;;16.70;;
3795;SDS011;1913;50.660;7.834;2022-11-20T15:33:18;30.40;;;15.00;;
3795;SDS011;1913;50.660;7.834;2022-11-20T15:35:43;32.40;;;15.20;;
3795;SDS011;1913;50.660;7.834;2022-11-20T15:38:09;33.87;;;15.00;;
3795;SDS011;1913;50.660;7.834;2022-11-20T15:40:35;40.83;;;17.30;;
3795;SDS011;1913;50.660;7.834;2022-11-20T15:43:00;36.87;;;15.73;;
3795;SDS011;1913;50.660;7.834;2022-11-20T15:45:43;35.83;;;15.60;;
3795;SDS011;1913;50.660;7.834;2022-11-20T15:48:31;37.53;;;15.83;;
3795;SDS011;1913;50.660;7.834;2022-11-20T15:53:32;26.70;;;13.60;;
3795;SDS011;1913;50.660;7.834;2022-11-20T15:55:57;30.00;;;14.60;;
3795;SDS011;1913;50.660;7.834;2022-11-20T15:58:23;35.53;;;13.23;;
3795;SDS011;1913;50.660;7.834;2022-11-20T16:00:49;24.30;;;13.83;;
3795;SDS011;1913;50.660;7.834;2022-11-20T16:03:16;25.83;;;13.47;;
3795;SDS011;1913;50.660;7.834;2022-11-20T16:05:42;21.23;;;11.20;;
3795;SDS011;1913;50.660;7.834;2022-11-20T16:08:08;22.53;;;11.40;;
3795;SDS011;1913;50.660;7.834;2022-11-20T16:10:34;19.23;;;10.00;;
3795;SDS011;1913;50.660;7.834;2022-11-20T16:13:00;23.30;;;9.07;;
3795;SDS011;1913;50.660;7.834;2022-11-20T16:15:45;23.80;;;8.10;;
3795;SDS011;1913;50.660;7.834;2022-11-20T16:18:16;9.80;;;5.90;;
3795;SDS011;1913;50.660;7.834;2022-11-20T16:20:43;16.47;;;8.43;;
3795;SDS011;1913;50.660;7.834;2022-11-20T16:23:10;13.47;;;7.60;;
3795;SDS011;1913;50.660;7.834;2022-11-20T16:25:36;8.10;;;4.67;;
3795;SDS011;1913;50.660;7.834;2022-11-20T16:28:02;9.87;;;4.70;;
3795;SDS011;1913;50.660;7.834;2022-11-20T16:30:27;8.43;;;5.37;;
3795;SDS011;1913;50.660;7.834;2022-11-20T16:32:52;6.70;;;3.97;;
3795;SDS011;1913;50.660;7.834;2022-11-20T16:35:18;6.03;;;4.00;;
3795;SDS011;1913;50.660;7.834;2022-11-20T16:37:43;7.10;;;4.27;;
3795;SDS011;1913;50.660;7.834;2022-11-20T16:40:09;5.03;;;3.40;;
3795;SDS011;1913;50.660;7.834;2022-11-20T16:42:36;5.03;;;3.20;;
3795;SDS011;1913;50.660;7.834;2022-11-20T16:45:02;5.30;;;3.27;;
3795;SDS011;1913;50.660;7.834;2022-11-20T16:47:32;5.77;;;3.73;;